sensor_id;sensor_type;location;lat;lon;timestamp;temperature;humidity
43143;DHT22;28750;59.842;17.584;2023-04-03T00:01:44;-3.60;99.90
43143;DHT22;28750;59.842;17.584;2023-04-03T00:04:10;-3.80;99.90
43143;DHT22;28750;59.842;17.584;2023-04-03T00:06:37;-3.50;99.90
43143;DHT22;28750;59.842;17.584;2023-04-03T00:09:04;-3.70;99.90
43143;DHT22;28750;59.842;17.584;2023-04-03T00:11:31;-3.60;99.90
43143;DHT22;28750;59.842;17.584;2023-04-03T00:13:57;-3.50;99.90
43143;DHT22;28750;59.842;17.584;2023-04-03T00:16:24;-3.70;99.90
43143;DHT22;28750;59.842;17.584;2023-04-03T00:18:51;-3.80;99.90
43143;DHT22;28750;59.842;17.584;2023-04-03T00:21:18;-3.80;99.90
43143;DHT22;28750;59.842;17.584;2023-04-03T00:23:44;-3.70;99.90
43143;DHT22;28750;59.842;17.584;2023-04-03T00:26:11;-3.80;99.90
43143;DHT22;28750;59.842;17.584;2023-04-03T00:28:38;-3.70;99.90
43143;DHT22;28750;59.842;17.584;2023-04-03T00:31:05;-3.80;99.90
43143;DHT22;28750;59.842;17.584;2023-04-03T00:33:31;-3.90;99.90
43143;DHT22;28750;59.842;17.584;2023-04-03T00:35:58;-4.10;99.90
43143;DHT22;28750;59.842;17.584;2023-04-03T00:38:25;-4.10;1.00
43143;DHT22;28750;59.842;17.584;2023-04-03T00:40:52;-4.10;51.20
43143;DHT22;28750;59.842;17.584;2023-04-03T00:43:20;-4.00;56.20
43143;DHT22;28750;59.842;17.584;2023-04-03T00:45:48;-4.00;87.90
43143;DHT22;28750;59.842;17.584;2023-04-03T00:48:17;-4.00;99.90
43143;DHT22;28750;59.842;17.584;2023-04-03T00:50:44;-4.10;99.90
43143;DHT22;28750;59.842;17.584;2023-04-03T00:53:13;-4.10;99.90
43143;DHT22;28750;59.842;17.584;2023-04-03T00:55:41;-4.20;99.90
43143;DHT22;28750;59.842;17.584;2023-04-03T00:58:08;-4.00;99.90
43143;DHT22;28750;59.842;17.584;2023-04-03T01:00:36;-4.00;99.90
43143;DHT22;28750;59.842;17.584;2023-04-03T01:03:03;-4.10;99.90
43143;DHT22;28750;59.842;17.584;2023-04-03T01:05:30;-4.00;99.90
43143;DHT22;28750;59.842;17.584;2023-04-03T01:07:57;-4.00;44.70
43143;DHT22;28750;59.842;17.584;2023-04-03T01:10:24;-4.20;17.70
43143;DHT22;28750;59.842;17.584;2023-04-03T01:12:51;-4.10;17.60
43143;DHT22;28750;59.842;17.584;2023-04-03T01:15:23;-4.00;1.00
43143;DHT22;28750;59.842;17.584;2023-04-03T01:17:57;-4.00;1.00
43143;DHT22;28750;59.842;17.584;2023-04-03T01:25:35;-4.00;1.00
43143;DHT22;28750;59.842;17.584;2023-04-03T01:28:02;-4.10;99.90
43143;DHT22;28750;59.842;17.584;2023-04-03T01:30:31;-4.10;99.90
43143;DHT22;28750;59.842;17.584;2023-04-03T01:32:59;-4.10;99.90
43143;DHT22;28750;59.842;17.584;2023-04-03T01:35:26;-4.10;99.90
43143;DHT22;28750;59.842;17.584;2023-04-03T01:37:53;-4.20;99.90
43143;DHT22;28750;59.842;17.584;2023-04-03T01:40:19;-4.10;99.90
43143;DHT22;28750;59.842;17.584;2023-04-03T01:42:46;-4.10;99.90
43143;DHT22;28750;59.842;17.584;2023-04-03T01:45:13;-4.20;99.90
43143;DHT22;28750;59.842;17.584;2023-04-03T01:47:40;-4.20;99.90
43143;DHT22;28750;59.842;17.584;2023-04-03T01:50:06;-4.10;99.90
43143;DHT22;28750;59.842;17.584;2023-04-03T01:52:33;-4.20;99.90
43143;DHT22;28750;59.842;17.584;2023-04-03T01:55:00;-4.30;99.90
43143;DHT22;28750;59.842;17.584;2023-04-03T01:57:27;-4.20;99.90
43143;DHT22;28750;59.842;17.584;2023-04-03T01:59:54;-4.30;99.90
43143;DHT22;28750;59.842;17.584;2023-04-03T02:02:20;-4.20;99.90
43143;DHT22;28750;59.842;17.584;2023-04-03T02:04:47;-4.20;99.90
43143;DHT22;28750;59.842;17.584;2023-04-03T02:07:14;-4.20;99.90
43143;DHT22;28750;59.842;17.584;2023-04-03T02:09:41;-4.20;1.00
43143;DHT22;28750;59.842;17.584;2023-04-03T02:12:07;-4.30;1.00
43143;DHT22;28750;59.842;17.584;2023-04-03T02:14:34;-4.50;1.00
43143;DHT22;28750;59.842;17.584;2023-04-03T02:17:01;-4.40;52.00
43143;DHT22;28750;59.842;17.584;2023-04-03T02:19:34;-4.40;99.90
43143;DHT22;28750;59.842;17.584;2023-04-03T02:22:02;-4.30;99.90
43143;DHT22;28750;59.842;17.584;2023-04-03T02:24:28;-4.40;90.20
43143;DHT22;28750;59.842;17.584;2023-04-03T02:26:55;-4.40;41.20
43143;DHT22;28750;59.842;17.584;2023-04-03T02:29:22;-4.40;5.70
43143;DHT22;28750;59.842;17.584;2023-04-03T02:31:49;-4.40;1.00
43143;DHT22;28750;59.842;17.584;2023-04-03T02:34:16;-4.40;1.00
43143;DHT22;28750;59.842;17.584;2023-04-03T02:36:43;-4.40;1.00
43143;DHT22;28750;59.842;17.584;2023-04-03T02:39:10;-4.40;1.00
43143;DHT22;28750;59.842;17.584;2023-04-03T02:41:37;-4.50;1.00
43143;DHT22;28750;59.842;17.584;2023-04-03T02:44:04;-4.40;21.10
43143;DHT22;28750;59.842;17.584;2023-04-03T02:46:32;-4.40;56.00
43143;DHT22;28750;59.842;17.584;2023-04-03T02:48:59;-4.40;30.00
43143;DHT22;28750;59.842;17.584;2023-04-03T02:51:25;-4.40;84.00
43143;DHT22;28750;59.842;17.584;2023-04-03T02:53:52;-4.40;99.90
43143;DHT22;28750;59.842;17.584;2023-04-03T02:56:19;-4.40;82.30
43143;DHT22;28750;59.842;17.584;2023-04-03T02:58:46;-4.40;49.50
43143;DHT22;28750;59.842;17.584;2023-04-03T03:01:13;-4.50;67.40
43143;DHT22;28750;59.842;17.584;2023-04-03T03:03:40;-4.50;15.40
43143;DHT22;28750;59.842;17.584;2023-04-03T03:06:08;-4.60;1.00
43143;DHT22;28750;59.842;17.584;2023-04-03T03:08:35;-4.60;10.40
43143;DHT22;28750;59.842;17.584;2023-04-03T03:11:03;-4.60;1.00
43143;DHT22;28750;59.842;17.584;2023-04-03T03:13:30;-4.70;1.00
43143;DHT22;28750;59.842;17.584;2023-04-03T03:15:57;-4.70;1.00
43143;DHT22;28750;59.842;17.584;2023-04-03T03:18:24;-4.60;1.00
43143;DHT22;28750;59.842;17.584;2023-04-03T03:20:54;-4.70;1.00
43143;DHT22;28750;59.842;17.584;2023-04-03T03:23:22;-4.80;21.30
43143;DHT22;28750;59.842;17.584;2023-04-03T03:25:49;-4.70;99.90
43143;DHT22;28750;59.842;17.584;2023-04-03T03:28:15;-4.90;99.90
43143;DHT22;28750;59.842;17.584;2023-04-03T03:30:42;-5.10;99.90
43143;DHT22;28750;59.842;17.584;2023-04-03T03:33:09;-5.00;99.90
43143;DHT22;28750;59.842;17.584;2023-04-03T03:35:36;-5.00;99.90
43143;DHT22;28750;59.842;17.584;2023-04-03T03:38:03;-4.90;96.40
43143;DHT22;28750;59.842;17.584;2023-04-03T03:40:29;-4.90;8.20
43143;DHT22;28750;59.842;17.584;2023-04-03T03:42:56;-5.10;99.90
43143;DHT22;28750;59.842;17.584;2023-04-03T03:45:23;-5.00;99.90
43143;DHT22;28750;59.842;17.584;2023-04-03T03:47:50;-5.00;99.90
43143;DHT22;28750;59.842;17.584;2023-04-03T03:50:17;-5.00;99.90
43143;DHT22;28750;59.842;17.584;2023-04-03T03:52:44;-5.20;99.90
43143;DHT22;28750;59.842;17.584;2023-04-03T03:55:11;-5.40;99.90
43143;DHT22;28750;59.842;17.584;2023-04-03T03:57:38;-5.30;99.90
43143;DHT22;28750;59.842;17.584;2023-04-03T04:00:05;-5.20;99.90
43143;DHT22;28750;59.842;17.584;2023-04-03T04:02:32;-5.20;99.90
43143;DHT22;28750;59.842;17.584;2023-04-03T04:04:59;-5.30;99.90
43143;DHT22;28750;59.842;17.584;2023-04-03T04:07:26;-5.40;99.90
43143;DHT22;28750;59.842;17.584;2023-04-03T04:09:54;-5.50;99.90
43143;DHT22;28750;59.842;17.584;2023-04-03T04:12:21;-5.70;1.00
43143;DHT22;28750;59.842;17.584;2023-04-03T04:14:48;-5.90;99.90
43143;DHT22;28750;59.842;17.584;2023-04-03T04:17:14;-5.80;53.70
43143;DHT22;28750;59.842;17.584;2023-04-03T04:19:41;-5.70;99.90
43143;DHT22;28750;59.842;17.584;2023-04-03T04:22:08;-5.60;99.90
43143;DHT22;28750;59.842;17.584;2023-04-03T04:24:35;-5.20;99.90
43143;DHT22;28750;59.842;17.584;2023-04-03T04:27:02;-5.30;11.60
43143;DHT22;28750;59.842;17.584;2023-04-03T04:29:28;-5.50;1.00
43143;DHT22;28750;59.842;17.584;2023-04-03T04:32:01;-5.50;99.90
43143;DHT22;28750;59.842;17.584;2023-04-03T04:34:27;-5.40;99.90
43143;DHT22;28750;59.842;17.584;2023-04-03T04:36:54;-5.50;99.90
43143;DHT22;28750;59.842;17.584;2023-04-03T04:39:21;-5.70;99.90
43143;DHT22;28750;59.842;17.584;2023-04-03T04:41:48;-5.30;1.00
43143;DHT22;28750;59.842;17.584;2023-04-03T04:44:15;-5.30;99.90
43143;DHT22;28750;59.842;17.584;2023-04-03T04:46:41;-5.10;99.90
43143;DHT22;28750;59.842;17.584;2023-04-03T04:49:08;-4.90;99.90
43143;DHT22;28750;59.842;17.584;2023-04-03T04:51:35;-4.90;2.40
43143;DHT22;28750;59.842;17.584;2023-04-03T04:54:02;-4.70;1.00
43143;DHT22;28750;59.842;17.584;2023-04-03T04:56:28;-4.50;99.90
43143;DHT22;28750;59.842;17.584;2023-04-03T04:58:55;-4.10;99.90
43143;DHT22;28750;59.842;17.584;2023-04-03T05:01:22;-3.30;1.00
43143;DHT22;28750;59.842;17.584;2023-04-03T05:03:49;-3.60;99.90
43143;DHT22;28750;59.842;17.584;2023-04-03T05:06:16;-3.70;1.00
43143;DHT22;28750;59.842;17.584;2023-04-03T05:08:42;-3.80;99.90
43143;DHT22;28750;59.842;17.584;2023-04-03T05:11:09;-3.70;99.90
43143;DHT22;28750;59.842;17.584;2023-04-03T05:13:36;-3.50;99.90
43143;DHT22;28750;59.842;17.584;2023-04-03T05:16:03;-3.30;99.90
43143;DHT22;28750;59.842;17.584;2023-04-03T05:18:30;-3.20;99.90
43143;DHT22;28750;59.842;17.584;2023-04-03T05:20:57;-3.00;70.00
43143;DHT22;28750;59.842;17.584;2023-04-03T05:23:24;-3.00;12.20
43143;DHT22;28750;59.842;17.584;2023-04-03T05:25:51;-2.70;1.00
43143;DHT22;28750;59.842;17.584;2023-04-03T05:28:18;-2.60;1.00
43143;DHT22;28750;59.842;17.584;2023-04-03T05:30:44;-2.50;99.90
43143;DHT22;28750;59.842;17.584;2023-04-03T05:33:11;-2.40;99.90
43143;DHT22;28750;59.842;17.584;2023-04-03T05:35:39;-2.30;99.90
43143;DHT22;28750;59.842;17.584;2023-04-03T05:38:06;-2.30;60.60
43143;DHT22;28750;59.842;17.584;2023-04-03T05:40:33;-2.40;1.00
43143;DHT22;28750;59.842;17.584;2023-04-03T05:43:00;-2.20;1.00
43143;DHT22;28750;59.842;17.584;2023-04-03T05:45:27;-2.20;1.00
43143;DHT22;28750;59.842;17.584;2023-04-03T05:47:53;-2.10;1.00
43143;DHT22;28750;59.842;17.584;2023-04-03T05:50:20;-1.90;99.90
43143;DHT22;28750;59.842;17.584;2023-04-03T05:52:48;-1.80;99.90
43143;DHT22;28750;59.842;17.584;2023-04-03T05:55:16;-1.90;99.90
43143;DHT22;28750;59.842;17.584;2023-04-03T05:57:42;-2.00;99.90
43143;DHT22;28750;59.842;17.584;2023-04-03T06:00:11;-1.90;99.90
43143;DHT22;28750;59.842;17.584;2023-04-03T06:02:39;-1.60;99.90
43143;DHT22;28750;59.842;17.584;2023-04-03T06:05:07;-1.60;99.90
43143;DHT22;28750;59.842;17.584;2023-04-03T06:07:34;-1.40;99.90
43143;DHT22;28750;59.842;17.584;2023-04-03T06:10:01;-1.30;99.90
43143;DHT22;28750;59.842;17.584;2023-04-03T06:12:28;-1.40;79.30
43143;DHT22;28750;59.842;17.584;2023-04-03T06:14:55;-1.30;71.20
43143;DHT22;28750;59.842;17.584;2023-04-03T06:17:22;-1.40;28.90
43143;DHT22;28750;59.842;17.584;2023-04-03T06:19:49;-1.60;99.30
43143;DHT22;28750;59.842;17.584;2023-04-03T06:22:16;-2.00;99.90
43143;DHT22;28750;59.842;17.584;2023-04-03T06:24:43;-1.80;99.90
43143;DHT22;28750;59.842;17.584;2023-04-03T06:27:10;-1.70;99.90
43143;DHT22;28750;59.842;17.584;2023-04-03T06:29:37;-1.60;99.90
43143;DHT22;28750;59.842;17.584;2023-04-03T06:32:04;-1.40;99.90
43143;DHT22;28750;59.842;17.584;2023-04-03T06:34:31;-1.40;99.90
43143;DHT22;28750;59.842;17.584;2023-04-03T06:36:58;-1.40;99.90
43143;DHT22;28750;59.842;17.584;2023-04-03T06:39:25;-1.60;99.90
43143;DHT22;28750;59.842;17.584;2023-04-03T06:41:52;-1.50;99.90
43143;DHT22;28750;59.842;17.584;2023-04-03T06:44:19;-1.40;99.90
43143;DHT22;28750;59.842;17.584;2023-04-03T06:46:46;-1.40;99.90
43143;DHT22;28750;59.842;17.584;2023-04-03T06:49:13;-1.10;99.90
43143;DHT22;28750;59.842;17.584;2023-04-03T06:51:40;-1.00;99.90
43143;DHT22;28750;59.842;17.584;2023-04-03T06:54:07;-0.80;99.90
43143;DHT22;28750;59.842;17.584;2023-04-03T06:56:34;-0.70;99.90
43143;DHT22;28750;59.842;17.584;2023-04-03T06:59:01;-0.80;99.90
43143;DHT22;28750;59.842;17.584;2023-04-03T07:01:28;-0.70;99.90
43143;DHT22;28750;59.842;17.584;2023-04-03T07:03:55;-0.40;99.90
43143;DHT22;28750;59.842;17.584;2023-04-03T07:06:22;-0.40;38.60
43143;DHT22;28750;59.842;17.584;2023-04-03T07:08:52;-0.40;5.20
43143;DHT22;28750;59.842;17.584;2023-04-03T07:11:19;-0.10;55.30
43143;DHT22;28750;59.842;17.584;2023-04-03T07:13:46;0.00;1.00
43143;DHT22;28750;59.842;17.584;2023-04-03T07:16:12;0.00;1.00
43143;DHT22;28750;59.842;17.584;2023-04-03T07:18:39;0.10;1.00
43143;DHT22;28750;59.842;17.584;2023-04-03T07:21:06;0.20;1.00
43143;DHT22;28750;59.842;17.584;2023-04-03T07:23:33;0.40;1.00
43143;DHT22;28750;59.842;17.584;2023-04-03T07:26:00;0.50;99.90
43143;DHT22;28750;59.842;17.584;2023-04-03T07:28:27;0.40;99.90
43143;DHT22;28750;59.842;17.584;2023-04-03T07:31:05;0.50;99.90
43143;DHT22;28750;59.842;17.584;2023-04-03T07:33:34;0.30;1.00
43143;DHT22;28750;59.842;17.584;2023-04-03T07:36:01;0.60;1.00
43143;DHT22;28750;59.842;17.584;2023-04-03T07:38:28;0.90;99.90
43143;DHT22;28750;59.842;17.584;2023-04-03T07:40:55;0.80;99.90
43143;DHT22;28750;59.842;17.584;2023-04-03T07:43:21;0.90;99.90
43143;DHT22;28750;59.842;17.584;2023-04-03T07:45:50;1.10;99.90
43143;DHT22;28750;59.842;17.584;2023-04-03T07:48:17;1.20;99.90
43143;DHT22;28750;59.842;17.584;2023-04-03T07:50:45;1.40;99.90
43143;DHT22;28750;59.842;17.584;2023-04-03T07:53:12;1.50;99.90
43143;DHT22;28750;59.842;17.584;2023-04-03T07:55:39;1.70;99.90
43143;DHT22;28750;59.842;17.584;2023-04-03T07:58:09;1.60;99.90
43143;DHT22;28750;59.842;17.584;2023-04-03T08:00:36;1.70;99.90
43143;DHT22;28750;59.842;17.584;2023-04-03T08:03:03;1.90;3.00
43143;DHT22;28750;59.842;17.584;2023-04-03T08:05:30;2.10;1.00
43143;DHT22;28750;59.842;17.584;2023-04-03T08:07:57;2.30;1.00
43143;DHT22;28750;59.842;17.584;2023-04-03T08:10:23;2.20;99.90
43143;DHT22;28750;59.842;17.584;2023-04-03T08:12:50;2.10;99.90
43143;DHT22;28750;59.842;17.584;2023-04-03T08:15:17;2.20;99.90
43143;DHT22;28750;59.842;17.584;2023-04-03T08:17:44;2.50;99.90
43143;DHT22;28750;59.842;17.584;2023-04-03T08:20:10;2.60;99.90
43143;DHT22;28750;59.842;17.584;2023-04-03T08:22:37;2.60;99.90
43143;DHT22;28750;59.842;17.584;2023-04-03T08:25:04;2.50;99.90
43143;DHT22;28750;59.842;17.584;2023-04-03T08:27:32;2.70;91.70
43143;DHT22;28750;59.842;17.584;2023-04-03T08:29:58;3.10;99.90
43143;DHT22;28750;59.842;17.584;2023-04-03T08:32:25;2.50;48.60
43143;DHT22;28750;59.842;17.584;2023-04-03T08:34:52;3.00;2.00
43143;DHT22;28750;59.842;17.584;2023-04-03T08:37:19;3.10;1.00
43143;DHT22;28750;59.842;17.584;2023-04-03T08:39:46;2.70;1.00
43143;DHT22;28750;59.842;17.584;2023-04-03T08:45:08;2.60;1.00
43143;DHT22;28750;59.842;17.584;2023-04-03T08:50:23;2.90;1.00
43143;DHT22;28750;59.842;17.584;2023-04-03T08:52:55;3.00;1.00
43143;DHT22;28750;59.842;17.584;2023-04-03T08:58:05;2.80;1.00
43143;DHT22;28750;59.842;17.584;2023-04-03T09:03:20;3.20;1.00
43143;DHT22;28750;59.842;17.584;2023-04-03T09:05:57;3.40;99.90
43143;DHT22;28750;59.842;17.584;2023-04-03T09:08:29;2.70;99.90
43143;DHT22;28750;59.842;17.584;2023-04-03T09:11:45;2.50;1.00
43143;DHT22;28750;59.842;17.584;2023-04-03T09:16:25;3.20;99.90
43143;DHT22;28750;59.842;17.584;2023-04-03T09:18:57;2.90;99.90
43143;DHT22;28750;59.842;17.584;2023-04-03T09:21:34;3.10;99.90
43143;DHT22;28750;59.842;17.584;2023-04-03T09:24:02;3.10;99.90
43143;DHT22;28750;59.842;17.584;2023-04-03T09:26:34;3.60;99.90
43143;DHT22;28750;59.842;17.584;2023-04-03T09:29:04;3.70;99.90
43143;DHT22;28750;59.842;17.584;2023-04-03T09:31:36;3.60;99.90
43143;DHT22;28750;59.842;17.584;2023-04-03T09:34:06;3.70;99.90
43143;DHT22;28750;59.842;17.584;2023-04-03T09:36:44;4.10;99.90
43143;DHT22;28750;59.842;17.584;2023-04-03T09:39:13;4.20;99.90
43143;DHT22;28750;59.842;17.584;2023-04-03T09:41:40;4.20;99.90
43143;DHT22;28750;59.842;17.584;2023-04-03T09:44:21;4.50;99.90
43143;DHT22;28750;59.842;17.584;2023-04-03T09:46:48;5.10;58.80
43143;DHT22;28750;59.842;17.584;2023-04-03T09:49:15;5.10;1.00
43143;DHT22;28750;59.842;17.584;2023-04-03T09:51:42;5.10;1.00
43143;DHT22;28750;59.842;17.584;2023-04-03T09:56:55;5.20;1.00
43143;DHT22;28750;59.842;17.584;2023-04-03T09:59:22;5.60;1.00
43143;DHT22;28750;59.842;17.584;2023-04-03T10:01:59;5.50;99.90
43143;DHT22;28750;59.842;17.584;2023-04-03T10:04:28;6.00;99.90
43143;DHT22;28750;59.842;17.584;2023-04-03T10:07:03;6.00;99.90
43143;DHT22;28750;59.842;17.584;2023-04-03T10:09:30;6.00;99.90
43143;DHT22;28750;59.842;17.584;2023-04-03T10:14:25;6.60;99.90
43143;DHT22;28750;59.842;17.584;2023-04-03T10:16:56;6.50;99.90
43143;DHT22;28750;59.842;17.584;2023-04-03T10:21:59;6.70;99.90
43143;DHT22;28750;59.842;17.584;2023-04-03T10:27:30;7.00;99.90
43143;DHT22;28750;59.842;17.584;2023-04-03T10:30:13;7.10;99.90
43143;DHT22;28750;59.842;17.584;2023-04-03T10:38:16;7.50;85.90
43143;DHT22;28750;59.842;17.584;2023-04-03T10:43:25;7.80;26.00
43143;DHT22;28750;59.842;17.584;2023-04-03T10:46:18;8.00;7.50
43143;DHT22;28750;59.842;17.584;2023-04-03T10:51:12;8.50;1.00
43143;DHT22;28750;59.842;17.584;2023-04-03T10:53:50;8.30;1.00
43143;DHT22;28750;59.842;17.584;2023-04-03T10:58:54;8.90;1.00
43143;DHT22;28750;59.842;17.584;2023-04-03T11:01:24;8.90;1.00
43143;DHT22;28750;59.842;17.584;2023-04-03T11:03:54;8.80;99.90
43143;DHT22;28750;59.842;17.584;2023-04-03T11:06:24;9.00;99.90
43143;DHT22;28750;59.842;17.584;2023-04-03T11:11:38;8.20;99.90
43143;DHT22;28750;59.842;17.584;2023-04-03T11:14:09;9.20;99.90
43143;DHT22;28750;59.842;17.584;2023-04-03T11:16:48;8.50;99.90
43143;DHT22;28750;59.842;17.584;2023-04-03T11:21:54;9.30;99.90
43143;DHT22;28750;59.842;17.584;2023-04-03T11:24:27;8.80;99.90
43143;DHT22;28750;59.842;17.584;2023-04-03T11:26:55;9.10;99.90
43143;DHT22;28750;59.842;17.584;2023-04-03T11:29:23;8.70;99.90
43143;DHT22;28750;59.842;17.584;2023-04-03T11:34:42;8.20;99.90
43143;DHT22;28750;59.842;17.584;2023-04-03T11:37:16;7.90;99.90
43143;DHT22;28750;59.842;17.584;2023-04-03T11:39:50;7.90;99.90
43143;DHT22;28750;59.842;17.584;2023-04-03T11:44:48;8.30;99.90
43143;DHT22;28750;59.842;17.584;2023-04-03T11:47:43;8.40;99.90
43143;DHT22;28750;59.842;17.584;2023-04-03T11:50:03;9.00;99.90
43143;DHT22;28750;59.842;17.584;2023-04-03T12:13:37;8.40;99.90
43143;DHT22;28750;59.842;17.584;2023-04-03T12:16:05;8.10;99.90
43143;DHT22;28750;59.842;17.584;2023-04-03T12:18:43;8.20;99.90
43143;DHT22;28750;59.842;17.584;2023-04-03T12:21:11;8.30;99.90
43143;DHT22;28750;59.842;17.584;2023-04-03T12:23:59;8.60;99.90
43143;DHT22;28750;59.842;17.584;2023-04-03T12:26:27;8.60;99.90
43143;DHT22;28750;59.842;17.584;2023-04-03T12:28:56;8.60;99.90
43143;DHT22;28750;59.842;17.584;2023-04-03T12:31:24;8.00;99.90
43143;DHT22;28750;59.842;17.584;2023-04-03T12:33:57;8.20;99.90
43143;DHT22;28750;59.842;17.584;2023-04-03T12:36:34;8.50;99.90
43143;DHT22;28750;59.842;17.584;2023-04-03T12:39:13;8.10;99.90
43143;DHT22;28750;59.842;17.584;2023-04-03T12:41:46;8.10;99.90
43143;DHT22;28750;59.842;17.584;2023-04-03T12:44:18;8.40;99.90
43143;DHT22;28750;59.842;17.584;2023-04-03T12:46:48;9.00;99.90
43143;DHT22;28750;59.842;17.584;2023-04-03T12:49:22;8.80;99.90
43143;DHT22;28750;59.842;17.584;2023-04-03T12:51:50;8.60;99.90
43143;DHT22;28750;59.842;17.584;2023-04-03T12:54:36;8.30;99.90
43143;DHT22;28750;59.842;17.584;2023-04-03T12:57:12;8.70;99.90
43143;DHT22;28750;59.842;17.584;2023-04-03T12:59:39;8.60;99.90
43143;DHT22;28750;59.842;17.584;2023-04-03T13:04:49;8.50;99.90
43143;DHT22;28750;59.842;17.584;2023-04-03T13:07:27;8.70;99.90
43143;DHT22;28750;59.842;17.584;2023-04-03T13:09:57;8.50;99.90
43143;DHT22;28750;59.842;17.584;2023-04-03T13:12:24;8.40;99.90
43143;DHT22;28750;59.842;17.584;2023-04-03T13:14:54;8.40;99.90
43143;DHT22;28750;59.842;17.584;2023-04-03T13:17:23;8.20;99.90
43143;DHT22;28750;59.842;17.584;2023-04-03T13:19:50;8.30;99.90
43143;DHT22;28750;59.842;17.584;2023-04-03T13:22:25;8.30;99.90
43143;DHT22;28750;59.842;17.584;2023-04-03T13:24:53;8.00;99.90
43143;DHT22;28750;59.842;17.584;2023-04-03T13:27:21;7.70;99.90
43143;DHT22;28750;59.842;17.584;2023-04-03T13:29:49;8.40;99.90
43143;DHT22;28750;59.842;17.584;2023-04-03T13:32:20;7.90;99.90
43143;DHT22;28750;59.842;17.584;2023-04-03T13:34:48;8.50;99.90
43143;DHT22;28750;59.842;17.584;2023-04-03T13:37:26;7.70;99.90
43143;DHT22;28750;59.842;17.584;2023-04-03T13:39:58;7.60;99.90
43143;DHT22;28750;59.842;17.584;2023-04-03T13:42:26;7.60;99.90
43143;DHT22;28750;59.842;17.584;2023-04-03T13:47:40;7.60;99.90
43143;DHT22;28750;59.842;17.584;2023-04-03T13:52:42;7.70;99.90
43143;DHT22;28750;59.842;17.584;2023-04-03T14:05:51;7.20;99.90
43143;DHT22;28750;59.842;17.584;2023-04-03T14:08:18;7.50;99.90
43143;DHT22;28750;59.842;17.584;2023-04-03T14:10:45;7.10;99.90
43143;DHT22;28750;59.842;17.584;2023-04-03T14:13:13;6.70;99.90
43143;DHT22;28750;59.842;17.584;2023-04-03T14:15:40;6.40;99.90
43143;DHT22;28750;59.842;17.584;2023-04-03T14:18:15;6.60;99.90
43143;DHT22;28750;59.842;17.584;2023-04-03T14:20:43;6.70;99.90
43143;DHT22;28750;59.842;17.584;2023-04-03T14:23:10;6.70;99.90
43143;DHT22;28750;59.842;17.584;2023-04-03T14:25:37;7.00;99.90
43143;DHT22;28750;59.842;17.584;2023-04-03T14:28:18;6.90;99.90
43143;DHT22;28750;59.842;17.584;2023-04-03T14:30:46;6.60;99.90
43143;DHT22;28750;59.842;17.584;2023-04-03T14:33:15;6.70;99.90
43143;DHT22;28750;59.842;17.584;2023-04-03T14:35:42;6.60;99.90
43143;DHT22;28750;59.842;17.584;2023-04-03T14:38:30;6.40;99.90
43143;DHT22;28750;59.842;17.584;2023-04-03T14:40:57;6.00;99.90
43143;DHT22;28750;59.842;17.584;2023-04-03T14:43:24;6.40;99.90
43143;DHT22;28750;59.842;17.584;2023-04-03T14:45:51;6.60;99.90
43143;DHT22;28750;59.842;17.584;2023-04-03T14:48:20;5.80;99.90
43143;DHT22;28750;59.842;17.584;2023-04-03T14:50:47;5.50;99.90
43143;DHT22;28750;59.842;17.584;2023-04-03T14:53:14;5.30;99.90
43143;DHT22;28750;59.842;17.584;2023-04-03T14:55:43;5.10;99.90
43143;DHT22;28750;59.842;17.584;2023-04-03T14:58:14;5.00;99.90
43143;DHT22;28750;59.842;17.584;2023-04-03T15:00:42;4.80;99.90
43143;DHT22;28750;59.842;17.584;2023-04-03T15:05:42;4.10;99.90
43143;DHT22;28750;59.842;17.584;2023-04-03T15:08:31;4.10;99.90
43143;DHT22;28750;59.842;17.584;2023-04-03T15:10:57;4.30;99.90
43143;DHT22;28750;59.842;17.584;2023-04-03T15:13:24;4.10;99.90
43143;DHT22;28750;59.842;17.584;2023-04-03T15:15:51;4.00;99.90
43143;DHT22;28750;59.842;17.584;2023-04-03T15:18:19;3.90;99.90
43143;DHT22;28750;59.842;17.584;2023-04-03T15:20:46;3.80;99.90
43143;DHT22;28750;59.842;17.584;2023-04-03T15:23:14;3.80;99.90
43143;DHT22;28750;59.842;17.584;2023-04-03T15:25:42;3.70;99.90
43143;DHT22;28750;59.842;17.584;2023-04-03T15:28:13;3.80;99.90
43143;DHT22;28750;59.842;17.584;2023-04-03T15:30:42;3.70;99.90
43143;DHT22;28750;59.842;17.584;2023-04-03T15:33:09;3.60;99.90
43143;DHT22;28750;59.842;17.584;2023-04-03T15:35:36;3.50;99.90
43143;DHT22;28750;59.842;17.584;2023-04-03T15:38:03;3.70;99.90
43143;DHT22;28750;59.842;17.584;2023-04-03T15:40:29;3.50;99.90
43143;DHT22;28750;59.842;17.584;2023-04-03T15:42:56;3.40;99.90
43143;DHT22;28750;59.842;17.584;2023-04-03T15:45:23;3.30;99.90
43143;DHT22;28750;59.842;17.584;2023-04-03T15:47:50;3.40;99.90
43143;DHT22;28750;59.842;17.584;2023-04-03T15:50:17;3.40;99.90
43143;DHT22;28750;59.842;17.584;2023-04-03T15:52:44;3.30;99.90
43143;DHT22;28750;59.842;17.584;2023-04-03T15:55:10;3.20;99.90
43143;DHT22;28750;59.842;17.584;2023-04-03T15:57:37;3.20;99.90
43143;DHT22;28750;59.842;17.584;2023-04-03T16:00:04;3.10;99.90
43143;DHT22;28750;59.842;17.584;2023-04-03T16:02:31;3.10;99.90
43143;DHT22;28750;59.842;17.584;2023-04-03T16:04:58;3.10;94.50
43143;DHT22;28750;59.842;17.584;2023-04-03T16:07:25;3.10;96.20
43143;DHT22;28750;59.842;17.584;2023-04-03T16:09:52;3.10;96.90
43143;DHT22;28750;59.842;17.584;2023-04-03T16:12:19;2.90;99.90
43143;DHT22;28750;59.842;17.584;2023-04-03T16:14:45;3.00;99.90
43143;DHT22;28750;59.842;17.584;2023-04-03T16:17:12;3.00;99.90
43143;DHT22;28750;59.842;17.584;2023-04-03T16:19:39;3.00;99.90
43143;DHT22;28750;59.842;17.584;2023-04-03T16:22:06;2.90;99.90
43143;DHT22;28750;59.842;17.584;2023-04-03T16:24:32;2.90;96.40
43143;DHT22;28750;59.842;17.584;2023-04-03T16:27:00;2.80;95.80
43143;DHT22;28750;59.842;17.584;2023-04-03T16:29:27;2.80;97.90
43143;DHT22;28750;59.842;17.584;2023-04-03T16:31:54;2.80;89.50
43143;DHT22;28750;59.842;17.584;2023-04-03T16:34:21;2.70;94.10
43143;DHT22;28750;59.842;17.584;2023-04-03T16:36:48;2.70;99.90
43143;DHT22;28750;59.842;17.584;2023-04-03T16:39:17;2.70;99.90
43143;DHT22;28750;59.842;17.584;2023-04-03T16:41:44;2.60;99.90
43143;DHT22;28750;59.842;17.584;2023-04-03T16:44:11;2.40;99.90
43143;DHT22;28750;59.842;17.584;2023-04-03T16:46:39;2.50;99.90
43143;DHT22;28750;59.842;17.584;2023-04-03T16:49:05;2.40;99.90
43143;DHT22;28750;59.842;17.584;2023-04-03T16:51:32;2.40;99.90
43143;DHT22;28750;59.842;17.584;2023-04-03T16:54:00;2.50;99.90
43143;DHT22;28750;59.842;17.584;2023-04-03T16:56:27;2.40;99.90
43143;DHT22;28750;59.842;17.584;2023-04-03T16:58:53;2.20;99.90
43143;DHT22;28750;59.842;17.584;2023-04-03T17:01:21;2.00;99.90
43143;DHT22;28750;59.842;17.584;2023-04-03T17:03:48;1.70;99.90
43143;DHT22;28750;59.842;17.584;2023-04-03T17:06:16;1.70;99.90
43143;DHT22;28750;59.842;17.584;2023-04-03T17:08:44;1.70;99.90
43143;DHT22;28750;59.842;17.584;2023-04-03T17:11:11;1.60;99.90